createdAt,value
2018-06-22T00:00:26.364Z,58.70
2018-06-22T00:02:53.216Z,58.80
2018-06-22T00:05:20.186Z,59.40
2018-06-22T00:07:46.968Z,58.70
2018-06-22T00:10:13.741Z,58.70
2018-06-22T00:12:40.528Z,59.40
2018-06-22T00:15:07.309Z,58.70
2018-06-22T00:17:34.050Z,58.70
2018-06-22T00:20:00.754Z,58.80
2018-06-22T00:22:27.448Z,58.70
2018-06-22T00:24:54.268Z,58.70
2018-06-22T00:27:21.027Z,58.80
2018-06-22T00:29:47.904Z,59.00
2018-06-22T00:32:14.684Z,58.90
2018-06-22T00:34:41.414Z,58.80
2018-06-22T00:37:08.097Z,58.80
2018-06-22T00:39:34.987Z,59.50
2018-06-22T00:42:01.774Z,58.90
2018-06-22T00:44:28.530Z,58.80
2018-06-22T00:46:55.279Z,58.90
2018-06-22T00:49:22.034Z,59.00
2018-06-22T00:51:48.895Z,58.90
2018-06-22T00:54:16.780Z,58.90
2018-06-22T00:56:43.738Z,58.90
2018-06-22T00:59:11.105Z,59.00
2018-06-22T01:01:37.851Z,58.90
2018-06-22T01:04:04.502Z,59.00
2018-06-22T01:06:31.203Z,59.10
2018-06-22T01:08:57.850Z,59.00
2018-06-22T01:11:24.576Z,59.00
2018-06-22T01:13:51.367Z,59.00
2018-06-22T01:16:18.001Z,59.10
2018-06-22T01:18:44.817Z,59.10
2018-06-22T01:21:11.570Z,59.10
2018-06-22T01:23:38.287Z,59.10
2018-06-22T01:26:05.277Z,59.10
2018-06-22T01:28:32.025Z,59.20
2018-06-22T01:30:58.916Z,59.10
2018-06-22T01:33:25.760Z,59.20
2018-06-22T01:35:52.450Z,59.20
2018-06-22T01:38:19.233Z,59.20
2018-06-22T01:40:46.057Z,59.30
2018-06-22T01:43:12.831Z,59.30
2018-06-22T01:45:39.619Z,59.30
2018-06-22T01:48:06.397Z,59.30
2018-06-22T01:50:33.096Z,59.30
2018-06-22T01:52:59.881Z,59.30
2018-06-22T01:55:26.649Z,59.30
2018-06-22T01:57:53.438Z,59.40
2018-06-22T02:00:20.256Z,59.30
2018-06-22T02:02:46.988Z,59.40
2018-06-22T02:05:13.706Z,59.40
2018-06-22T02:07:40.422Z,59.40
2018-06-22T02:10:07.200Z,59.40
2018-06-22T02:12:34.020Z,59.40
2018-06-22T02:15:00.774Z,59.40
2018-06-22T02:17:27.498Z,59.50
2018-06-22T02:19:54.232Z,59.40
2018-06-22T02:22:20.974Z,59.50
2018-06-22T02:24:47.797Z,59.50
2018-06-22T02:27:14.551Z,59.50
2018-06-22T02:29:41.376Z,59.60
2018-06-22T02:32:08.100Z,59.60
2018-06-22T02:34:34.841Z,59.50
2018-06-22T02:37:01.676Z,59.60
2018-06-22T02:39:28.409Z,59.60
2018-06-22T02:41:55.144Z,59.60
2018-06-22T02:44:21.959Z,59.60
2018-06-22T02:46:48.730Z,59.70
2018-06-22T02:49:15.529Z,59.70
2018-06-22T02:51:42.192Z,59.70
2018-06-22T02:54:08.999Z,59.70
2018-06-22T02:56:35.827Z,59.70
2018-06-22T02:59:02.671Z,59.80
2018-06-22T03:01:29.538Z,59.80
2018-06-22T03:03:56.219Z,59.50
2018-06-22T03:06:23.047Z,59.80
2018-06-22T03:08:49.879Z,59.80
2018-06-22T03:11:16.679Z,59.80
2018-06-22T03:13:43.415Z,59.80
2018-06-22T03:16:11.600Z,59.80
2018-06-22T03:18:38.337Z,59.80
2018-06-22T03:21:05.153Z,59.80
2018-06-22T03:23:31.937Z,59.90
2018-06-22T03:25:58.699Z,59.90
2018-06-22T03:28:28.336Z,59.90
2018-06-22T03:30:56.344Z,59.90
2018-06-22T03:33:23.371Z,60.00
2018-06-22T03:35:50.171Z,59.90
2018-06-22T03:38:16.926Z,60.00
2018-06-22T03:40:43.638Z,59.90
2018-06-22T03:43:10.411Z,60.00
2018-06-22T03:45:37.442Z,59.90
2018-06-22T03:48:04.218Z,59.90
2018-06-22T03:50:31.066Z,60.00
2018-06-22T03:52:57.937Z,60.00
2018-06-22T03:55:25.011Z,60.00
2018-06-22T03:57:52.018Z,60.00
2018-06-22T04:00:18.874Z,60.00
2018-06-22T04:02:45.571Z,60.00
2018-06-22T04:05:12.275Z,60.10
2018-06-22T04:07:38.932Z,60.10
2018-06-22T04:10:05.808Z,60.10
2018-06-22T04:12:32.764Z,60.00
2018-06-22T04:14:59.598Z,60.10
2018-06-22T04:17:27.518Z,60.20
2018-06-22T04:19:54.202Z,60.10
2018-06-22T04:22:20.942Z,60.20
2018-06-22T04:24:47.844Z,60.20
2018-06-22T04:27:14.599Z,60.20
2018-06-22T04:29:41.514Z,60.30
2018-06-22T04:32:08.295Z,60.30
2018-06-22T04:34:35.314Z,60.30
2018-06-22T04:37:02.177Z,60.30
2018-06-22T04:39:28.907Z,60.30
2018-06-22T04:41:55.663Z,60.30
2018-06-22T04:44:22.435Z,60.30
2018-06-22T04:46:49.169Z,60.30
2018-06-22T04:49:15.921Z,60.40
2018-06-22T04:51:42.705Z,60.40
2018-06-22T04:54:09.502Z,60.40
2018-06-22T04:56:36.377Z,60.40
2018-06-22T04:59:03.339Z,60.50
2018-06-22T05:01:30.233Z,60.50
2018-06-22T05:03:56.911Z,60.40
2018-06-22T05:06:23.671Z,60.50
2018-06-22T05:08:50.371Z,60.60
2018-06-22T05:11:17.169Z,60.60
2018-06-22T05:13:44.097Z,60.60
2018-06-22T05:16:10.825Z,60.60
2018-06-22T05:18:37.591Z,60.60
2018-06-22T05:21:04.319Z,60.70
2018-06-22T05:23:31.117Z,60.70
2018-06-22T05:25:57.853Z,60.70
2018-06-22T05:28:24.717Z,60.70
2018-06-22T05:30:51.513Z,60.70
2018-06-22T05:33:18.294Z,60.80
2018-06-22T05:35:45.114Z,60.80
2018-06-22T05:38:11.844Z,61.00
2018-06-22T05:40:38.583Z,60.80
2018-06-22T05:43:05.398Z,60.90
2018-06-22T05:45:32.142Z,60.90
2018-06-22T05:47:58.933Z,61.00
2018-06-22T05:50:26.017Z,61.00
2018-06-22T05:52:52.748Z,61.10
2018-06-22T05:55:19.526Z,61.10
2018-06-22T05:57:46.424Z,61.10
2018-06-22T06:00:13.180Z,61.20
2018-06-22T06:02:40.018Z,61.10
2018-06-22T06:05:06.748Z,61.10
2018-06-22T06:07:33.494Z,61.10
2018-06-22T06:10:00.307Z,61.30
2018-06-22T06:12:27.310Z,61.30
2018-06-22T06:14:54.029Z,61.30
2018-06-22T06:17:20.812Z,61.30
2018-06-22T06:19:47.544Z,61.40
2018-06-22T06:22:14.311Z,61.40
2018-06-22T06:24:41.083Z,61.40
2018-06-22T06:27:07.802Z,61.50
2018-06-22T06:29:34.567Z,61.50
2018-06-22T06:32:01.367Z,61.50
2018-06-22T06:34:28.207Z,61.50
2018-06-22T06:36:54.925Z,61.60
2018-06-22T06:39:21.690Z,61.60
2018-06-22T06:41:48.405Z,61.60
2018-06-22T06:44:15.247Z,61.60
2018-06-22T06:46:42.016Z,61.70
2018-06-22T06:49:08.773Z,61.70
2018-06-22T06:51:35.673Z,61.70
2018-06-22T06:54:02.662Z,61.70
2018-06-22T06:56:29.407Z,61.80
2018-06-22T06:58:56.197Z,61.70
2018-06-22T07:01:22.983Z,61.80
2018-06-22T07:03:49.725Z,61.90
2018-06-22T07:06:16.473Z,61.80
2018-06-22T07:08:43.247Z,61.80
2018-06-22T07:11:10.036Z,61.90
2018-06-22T07:13:36.815Z,61.90
2018-06-22T07:16:03.620Z,61.80
2018-06-22T07:18:30.361Z,61.90
2018-06-22T07:20:57.060Z,61.90
2018-06-22T07:23:23.784Z,61.80
2018-06-22T07:25:50.485Z,61.80
2018-06-22T07:28:17.323Z,61.70
2018-06-22T07:30:44.085Z,61.70
2018-06-22T07:33:10.763Z,61.70
2018-06-22T07:35:37.525Z,61.70
2018-06-22T07:38:04.290Z,61.70
2018-06-22T07:40:31.133Z,61.70
2018-06-22T07:42:57.875Z,61.70
2018-06-22T07:45:24.660Z,61.70
2018-06-22T07:47:51.391Z,62.30
2018-06-22T07:50:18.124Z,61.70
2018-06-22T07:52:44.821Z,61.60
2018-06-22T07:55:43.879Z,61.60
2018-06-22T07:58:10.708Z,61.50
2018-06-22T08:00:37.469Z,62.30
2018-06-22T08:03:04.197Z,61.50
2018-06-22T08:05:30.907Z,61.50
2018-06-22T08:07:57.613Z,61.40
2018-06-22T08:10:24.325Z,61.40
2018-06-22T08:12:51.050Z,61.40
2018-06-22T08:15:17.766Z,61.30
2018-06-22T08:17:44.653Z,61.30
2018-06-22T08:20:11.366Z,61.30
2018-06-22T08:22:38.100Z,61.30
2018-06-22T08:25:07.863Z,61.30
2018-06-22T08:27:34.608Z,61.20
2018-06-22T08:30:01.350Z,61.20
2018-06-22T08:32:28.301Z,61.10
2018-06-22T08:34:55.128Z,61.10
2018-06-22T08:37:21.834Z,61.00
2018-06-22T08:39:48.701Z,60.90
2018-06-22T08:42:15.685Z,61.00
2018-06-22T08:44:42.415Z,61.00
2018-06-22T08:47:09.143Z,60.90
2018-06-22T08:49:35.909Z,60.90
2018-06-22T08:52:02.803Z,60.90
2018-06-22T08:54:29.514Z,60.80
2018-06-22T08:56:56.305Z,60.80
2018-06-22T08:59:23.128Z,60.80
2018-06-22T09:01:49.895Z,60.70
2018-06-22T09:04:16.820Z,60.60
2018-06-22T09:06:43.645Z,60.70
2018-06-22T09:09:10.546Z,60.70
2018-06-22T09:11:37.296Z,60.60
2018-06-22T09:14:04.084Z,60.60
2018-06-22T09:16:30.801Z,60.50
2018-06-22T09:18:57.511Z,60.50
2018-06-22T09:21:24.263Z,60.50
2018-06-22T09:23:51.050Z,61.10
2018-06-22T09:26:17.875Z,60.40
2018-06-22T09:28:44.623Z,60.50
2018-06-22T09:31:11.490Z,60.40
2018-06-22T09:33:38.226Z,60.20
2018-06-22T09:36:05.112Z,60.20
2018-06-22T09:38:31.898Z,60.20
2018-06-22T09:40:58.696Z,60.20
2018-06-22T09:43:25.476Z,60.10
2018-06-22T09:45:52.330Z,60.10
2018-06-22T09:48:19.147Z,60.10
2018-06-22T09:50:46.178Z,60.00
2018-06-22T09:53:13.110Z,60.00
2018-06-22T09:55:39.888Z,60.30
2018-06-22T09:58:06.873Z,60.00
2018-06-22T10:00:34.539Z,60.70
2018-06-22T10:03:01.662Z,60.00
2018-06-22T10:05:28.516Z,59.90
2018-06-22T10:07:55.324Z,59.90
2018-06-22T10:10:22.168Z,59.90
2018-06-22T10:12:49.126Z,59.90
2018-06-22T10:15:15.917Z,59.90
2018-06-22T10:17:42.711Z,59.80
2018-06-22T10:20:09.567Z,59.90
2018-06-22T10:22:36.368Z,59.80
2018-06-22T10:25:03.135Z,59.70
2018-06-22T10:27:29.926Z,59.80
2018-06-22T10:29:56.736Z,59.70
2018-06-22T10:32:23.527Z,59.70
2018-06-22T10:34:50.441Z,59.70
2018-06-22T10:37:17.290Z,59.70
2018-06-22T10:39:44.114Z,59.60
2018-06-22T10:42:11.117Z,59.60
2018-06-22T10:44:37.928Z,59.60
2018-06-22T10:47:04.624Z,59.60
2018-06-22T10:49:31.377Z,59.60
2018-06-22T10:51:58.334Z,59.60
2018-06-22T10:54:26.117Z,60.20
2018-06-22T10:56:52.991Z,59.50
2018-06-22T10:59:19.689Z,59.40
2018-06-22T11:01:46.409Z,59.40
2018-06-22T11:04:13.311Z,59.40
2018-06-22T11:06:40.110Z,59.40
2018-06-22T11:09:06.831Z,59.40
2018-06-22T11:11:33.610Z,59.30
2018-06-22T11:14:00.430Z,59.30
2018-06-22T11:16:27.145Z,59.30
2018-06-22T11:18:53.914Z,59.30
2018-06-22T11:21:20.744Z,59.20
2018-06-22T11:23:47.555Z,59.20
2018-06-22T11:26:14.276Z,59.20
2018-06-22T11:28:41.266Z,59.20
2018-06-22T11:31:08.098Z,59.00
2018-06-22T11:33:35.010Z,59.10
2018-06-22T11:36:01.771Z,59.00
2018-06-22T11:38:28.510Z,59.00
2018-06-22T11:40:55.309Z,59.00
2018-06-22T11:43:21.982Z,58.90
2018-06-22T11:45:48.751Z,58.90
2018-06-22T11:48:15.521Z,58.90
2018-06-22T11:50:42.296Z,58.80
2018-06-22T11:53:09.045Z,59.40
2018-06-22T11:55:35.759Z,58.70
2018-06-22T11:58:02.430Z,58.70
2018-06-22T12:00:29.372Z,58.70
2018-06-22T12:02:56.518Z,58.70
2018-06-22T12:05:23.216Z,58.70
2018-06-22T12:07:50.000Z,58.60
2018-06-22T12:10:16.787Z,58.60
2018-06-22T12:12:43.488Z,58.50
2018-06-22T12:15:10.169Z,58.40
2018-06-22T12:17:36.974Z,58.40
2018-06-22T12:20:03.629Z,58.40
2018-06-22T12:22:30.284Z,58.30
2018-06-22T12:24:57.077Z,58.30
2018-06-22T12:27:23.894Z,58.30
2018-06-22T12:29:50.703Z,58.20
2018-06-22T12:32:17.721Z,58.20
2018-06-22T12:34:44.477Z,58.20
2018-06-22T12:37:11.164Z,58.10
2018-06-22T12:39:37.944Z,58.10
2018-06-22T12:42:04.696Z,58.10
2018-06-22T12:44:31.418Z,57.90
2018-06-22T12:46:58.269Z,58.10
2018-06-22T12:49:25.025Z,57.90
2018-06-22T12:51:51.867Z,57.80
2018-06-22T12:54:18.711Z,57.90
2018-06-22T12:56:45.521Z,57.80
2018-06-22T12:59:12.500Z,57.80
2018-06-22T13:01:39.301Z,57.80
2018-06-22T13:04:06.233Z,57.80
2018-06-22T13:06:34.508Z,57.90
2018-06-22T13:09:01.275Z,57.70
2018-06-22T13:11:27.971Z,57.70
2018-06-22T13:13:54.813Z,57.70
2018-06-22T13:16:21.593Z,57.60
2018-06-22T13:18:48.419Z,57.60
2018-06-22T13:21:15.207Z,57.60
2018-06-22T13:23:41.909Z,57.60
2018-06-22T13:26:08.695Z,57.50
2018-06-22T13:28:35.627Z,57.40
2018-06-22T13:31:02.351Z,57.50
2018-06-22T13:33:29.183Z,57.50
2018-06-22T13:35:56.055Z,57.50
2018-06-22T13:38:22.911Z,57.50
2018-06-22T13:40:49.660Z,57.40
2018-06-22T13:43:16.389Z,57.50
2018-06-22T13:45:43.096Z,57.40
2018-06-22T13:48:09.850Z,57.30
2018-06-22T13:50:36.920Z,57.40
2018-06-22T13:53:03.667Z,57.40
2018-06-22T13:55:30.369Z,57.30
2018-06-22T13:57:57.052Z,57.30
2018-06-22T14:00:23.787Z,57.20
2018-06-22T14:02:50.490Z,57.30
2018-06-22T14:07:27.540Z,57.30
2018-06-22T14:09:54.242Z,57.30
2018-06-22T14:12:20.956Z,57.30
2018-06-22T14:14:47.695Z,57.20
2018-06-22T14:17:14.391Z,57.20
2018-06-22T14:19:41.144Z,57.20
2018-06-22T14:22:07.845Z,57.10
2018-06-22T14:24:34.644Z,57.10
2018-06-22T14:27:01.400Z,57.20
2018-06-22T14:29:28.188Z,57.10
2018-06-22T14:31:55.089Z,57.10
2018-06-22T14:34:21.896Z,57.10
2018-06-22T14:36:48.644Z,57.10
2018-06-22T14:39:15.354Z,57.10
2018-06-22T14:41:42.098Z,57.10
2018-06-22T14:44:08.835Z,57.10
2018-06-22T14:46:35.645Z,57.10
2018-06-22T14:49:02.363Z,57.00
2018-06-22T14:51:29.137Z,57.10
2018-06-22T14:54:01.284Z,57.00
2018-06-22T14:56:33.683Z,57.10
2018-06-22T14:59:06.007Z,57.10
2018-06-22T15:01:38.352Z,57.00
2018-06-22T15:04:10.673Z,57.00
2018-06-22T15:06:42.993Z,56.90
2018-06-22T15:09:10.467Z,56.90
2018-06-22T15:11:37.643Z,57.00
2018-06-22T15:14:04.446Z,56.90
2018-06-22T15:16:31.211Z,56.90
2018-06-22T15:18:57.950Z,56.90
2018-06-22T15:21:24.718Z,57.00
2018-06-22T15:23:51.669Z,56.90
2018-06-22T15:26:18.440Z,56.90
2018-06-22T15:28:45.240Z,57.00
2018-06-22T15:31:12.142Z,56.90
2018-06-22T15:33:44.513Z,56.90
2018-06-22T15:36:16.906Z,56.90
2018-06-22T15:38:49.108Z,56.90
2018-06-22T15:41:21.358Z,56.80
2018-06-22T15:43:53.778Z,56.90
2018-06-22T15:46:26.142Z,56.90
2018-06-22T15:51:04.353Z,56.80
2018-06-22T15:53:36.769Z,56.90
2018-06-22T15:56:07.793Z,56.90
2018-06-22T15:58:34.681Z,56.80
2018-06-22T16:01:01.431Z,56.80
2018-06-22T16:03:33.794Z,56.80
2018-06-22T16:06:00.657Z,56.80
2018-06-22T16:08:27.667Z,56.70
2018-06-22T16:10:54.490Z,56.80
2018-06-22T16:13:21.596Z,56.70
2018-06-22T16:15:53.824Z,56.60
2018-06-22T16:18:26.180Z,56.70
2018-06-22T16:20:58.524Z,56.70
2018-06-22T16:23:30.805Z,56.70
2018-06-22T16:26:03.121Z,56.70
2018-06-22T16:28:29.853Z,56.60
2018-06-22T16:30:56.792Z,56.60
2018-06-22T16:33:23.569Z,56.60
2018-06-22T16:35:50.445Z,56.60
2018-06-22T16:38:17.376Z,56.60
2018-06-22T16:40:44.168Z,56.60
2018-06-22T16:43:11.015Z,56.60
2018-06-22T16:45:37.890Z,56.60
2018-06-22T16:48:04.603Z,56.50
2018-06-22T16:50:31.997Z,56.50
2018-06-22T16:52:58.827Z,56.60
2018-06-22T16:55:25.568Z,56.60
2018-06-22T16:57:52.503Z,56.50
2018-06-22T17:00:19.373Z,56.50
2018-06-22T17:02:46.083Z,56.50
2018-06-22T17:05:12.874Z,56.50
2018-06-22T17:07:45.196Z,56.50
2018-06-22T17:10:17.498Z,56.40
2018-06-22T17:12:49.774Z,56.50
2018-06-22T17:15:22.096Z,56.50
2018-06-22T17:17:54.240Z,56.50
2018-06-22T17:20:21.048Z,56.50
2018-06-22T17:22:47.848Z,56.50
2018-06-22T17:25:14.676Z,56.50
2018-06-22T17:27:41.642Z,56.50
2018-06-22T17:30:08.388Z,56.60
2018-06-22T17:32:35.176Z,56.40
2018-06-22T17:35:01.913Z,56.50
2018-06-22T17:37:28.770Z,56.50
2018-06-22T17:39:55.577Z,56.40
2018-06-22T17:42:22.381Z,56.40
2018-06-22T17:44:49.162Z,56.40
2018-06-22T17:47:15.884Z,57.10
2018-06-22T17:49:46.020Z,56.50
2018-06-22T17:52:12.770Z,56.50
2018-06-22T17:54:39.704Z,56.50
2018-06-22T17:57:06.514Z,56.50
2018-06-22T17:59:38.890Z,56.50
2018-06-22T18:02:11.388Z,56.50
2018-06-22T18:06:46.657Z,56.50
2018-06-22T18:09:18.978Z,56.50
2018-06-22T18:11:51.267Z,56.50
2018-06-22T18:14:17.967Z,57.20
2018-06-22T18:16:49.987Z,56.50
2018-06-22T18:19:22.782Z,56.50
2018-06-22T18:21:57.772Z,56.50
2018-06-22T18:24:32.157Z,56.50
2018-06-22T18:27:03.396Z,56.50
2018-06-22T18:29:35.192Z,56.50
2018-06-22T18:32:11.842Z,56.60
2018-06-22T18:34:43.919Z,56.50
2018-06-22T18:37:12.348Z,56.50
2018-06-22T18:39:39.241Z,56.40
2018-06-22T18:42:06.133Z,56.50
2018-06-22T18:44:32.914Z,56.60
2018-06-22T18:46:59.752Z,56.50
2018-06-22T18:49:26.568Z,56.60
2018-06-22T18:51:58.773Z,56.60
2018-06-22T18:54:31.024Z,57.10
2018-06-22T18:57:03.477Z,56.50
2018-06-22T18:59:35.862Z,56.60
2018-06-22T19:02:08.209Z,56.60
2018-06-22T19:04:35.049Z,56.60
2018-06-22T19:07:01.882Z,56.60
2018-06-22T19:09:28.595Z,56.60
2018-06-22T19:11:55.417Z,56.60
2018-06-22T19:14:22.378Z,56.60
2018-06-22T19:16:49.165Z,56.60
2018-06-22T19:19:15.928Z,56.60
2018-06-22T19:21:42.719Z,56.50
2018-06-22T19:24:09.480Z,56.50
2018-06-22T19:26:36.281Z,56.50
2018-06-22T19:29:03.125Z,56.50
2018-06-22T19:31:29.941Z,56.50
2018-06-22T19:33:56.652Z,56.50
2018-06-22T19:36:23.410Z,56.50
2018-06-22T19:38:50.205Z,56.40
2018-06-22T19:41:17.060Z,56.40
2018-06-22T19:43:49.457Z,56.30
2018-06-22T19:46:21.751Z,56.50
2018-06-22T19:48:54.088Z,56.50
2018-06-22T19:51:26.373Z,56.40
2018-06-22T19:53:58.635Z,56.40
2018-06-22T19:56:25.429Z,56.40
2018-06-22T19:58:52.251Z,56.40
2018-06-22T20:01:19.071Z,56.50
2018-06-22T20:03:46.203Z,56.50
2018-06-22T20:06:12.914Z,56.50
2018-06-22T20:08:39.744Z,56.50
2018-06-22T20:11:06.617Z,56.40
2018-06-22T20:13:33.492Z,56.40
2018-06-22T20:16:00.298Z,56.40
2018-06-22T20:18:27.063Z,56.60
2018-06-22T20:20:53.904Z,56.30
2018-06-22T20:23:20.683Z,56.40
2018-06-22T20:25:47.473Z,56.40
2018-06-22T20:28:14.877Z,56.50
2018-06-22T20:30:41.759Z,56.50
2018-06-22T20:33:08.549Z,56.40
2018-06-22T20:35:40.944Z,56.50
2018-06-22T20:38:13.269Z,56.40
2018-06-22T20:40:45.685Z,56.40
2018-06-22T20:43:17.911Z,56.50
2018-06-22T20:45:49.153Z,56.50
2018-06-22T20:48:21.507Z,56.50
2018-06-22T20:50:48.331Z,56.50
2018-06-22T20:53:15.067Z,56.50
2018-06-22T20:55:41.776Z,56.50
2018-06-22T20:58:08.439Z,56.60
2018-06-22T21:00:35.195Z,56.60
2018-06-22T21:03:01.919Z,56.50
2018-06-22T21:05:28.691Z,56.50
2018-06-22T21:07:55.549Z,56.50
2018-06-22T21:10:22.254Z,56.60
2018-06-22T21:12:49.139Z,57.10
2018-06-22T21:15:15.808Z,56.60
2018-06-22T21:17:42.780Z,56.60
2018-06-22T21:20:09.671Z,56.60
2018-06-22T21:22:36.439Z,56.60
2018-06-22T21:25:03.188Z,56.60
2018-06-22T21:29:38.436Z,56.60
2018-06-22T21:32:10.612Z,56.60
2018-06-22T21:34:41.821Z,56.70
2018-06-22T21:37:14.168Z,56.70
2018-06-22T21:39:40.893Z,56.70
2018-06-22T21:42:08.341Z,56.70
2018-06-22T21:44:35.116Z,56.70
2018-06-22T21:47:01.814Z,56.80
2018-06-22T21:49:28.511Z,56.80
2018-06-22T21:51:55.299Z,56.80
2018-06-22T21:54:22.044Z,56.80
2018-06-22T21:56:48.810Z,56.80
2018-06-22T21:59:15.584Z,56.70
2018-06-22T22:01:42.368Z,56.80
2018-06-22T22:04:09.214Z,56.90
2018-06-22T22:06:35.983Z,56.80
2018-06-22T22:09:02.903Z,56.90
2018-06-22T22:12:04.329Z,56.90
2018-06-22T22:14:31.179Z,56.90
2018-06-22T22:16:57.944Z,56.90
2018-06-22T22:19:24.697Z,56.90
2018-06-22T22:21:51.409Z,56.90
2018-06-22T22:24:18.277Z,57.50
2018-06-22T22:26:45.129Z,57.00
2018-06-22T22:29:11.886Z,57.00
2018-06-22T22:31:38.858Z,56.90
2018-06-22T22:34:05.627Z,57.00
2018-06-22T22:36:32.427Z,57.00
2018-06-22T22:38:59.393Z,57.00
2018-06-22T22:41:26.176Z,57.10
2018-06-22T22:43:52.873Z,57.10
2018-06-22T22:46:19.689Z,57.00
2018-06-22T22:48:46.434Z,57.00
2018-06-22T22:51:13.142Z,57.00
2018-06-22T22:53:39.888Z,57.10
2018-06-22T22:56:06.621Z,57.10
2018-06-22T22:58:33.593Z,57.10
2018-06-22T23:01:00.354Z,57.10
2018-06-22T23:03:27.122Z,57.10
2018-06-22T23:05:53.958Z,57.10
2018-06-22T23:08:20.726Z,57.10
2018-06-22T23:10:47.586Z,57.20
2018-06-22T23:13:14.404Z,57.10
2018-06-22T23:15:41.301Z,57.20
2018-06-22T23:18:08.028Z,57.10
2018-06-22T23:20:34.815Z,57.10
2018-06-22T23:23:01.604Z,57.20
2018-06-22T23:25:28.311Z,57.20
2018-06-22T23:27:55.042Z,57.20
2018-06-22T23:30:21.797Z,57.20
2018-06-22T23:32:48.629Z,57.20
2018-06-22T23:35:18.984Z,57.30
2018-06-22T23:37:45.743Z,57.20
2018-06-22T23:40:12.492Z,57.30
2018-06-22T23:42:39.207Z,57.30
2018-06-22T23:45:06.044Z,57.30
2018-06-22T23:47:32.772Z,57.30
2018-06-22T23:49:59.584Z,57.30
2018-06-22T23:52:26.303Z,57.30
2018-06-22T23:54:53.142Z,57.30
2018-06-22T23:57:19.852Z,57.40
2018-06-22T23:59:46.605Z,57.40
